sensor_id;sensor_type;location;lat;lon;timestamp;P1;durP1;ratioP1;P2;durP2;ratioP2
11835;SDS011;5977;51.972;7.640;2023-02-03T00:00:02;155.33;;;49.17;;
11835;SDS011;5977;51.972;7.640;2023-02-03T00:02:36;155.30;;;49.13;;
11835;SDS011;5977;51.972;7.640;2023-02-03T00:05:06;156.27;;;49.63;;
11835;SDS011;5977;51.972;7.640;2023-02-03T00:07:35;156.43;;;49.67;;
11835;SDS011;5977;51.972;7.640;2023-02-03T00:10:03;156.50;;;49.63;;
11835;SDS011;5977;51.972;7.640;2023-02-03T00:12:32;155.77;;;49.50;;
11835;SDS011;5977;51.972;7.640;2023-02-03T00:15:00;156.00;;;49.50;;
11835;SDS011;5977;51.972;7.640;2023-02-03T00:17:28;155.77;;;49.57;;
11835;SDS011;5977;51.972;7.640;2023-02-03T00:19:56;156.37;;;49.70;;
11835;SDS011;5977;51.972;7.640;2023-02-03T00:22:25;155.53;;;49.57;;
11835;SDS011;5977;51.972;7.640;2023-02-03T00:24:53;155.77;;;49.50;;
11835;SDS011;5977;51.972;7.640;2023-02-03T00:27:21;156.17;;;49.67;;
11835;SDS011;5977;51.972;7.640;2023-02-03T00:29:49;157.03;;;50.00;;
11835;SDS011;5977;51.972;7.640;2023-02-03T00:32:16;155.87;;;49.43;;
11835;SDS011;5977;51.972;7.640;2023-02-03T00:34:45;156.10;;;49.50;;
11835;SDS011;5977;51.972;7.640;2023-02-03T00:37:13;156.50;;;49.87;;
11835;SDS011;5977;51.972;7.640;2023-02-03T00:39:42;155.97;;;49.57;;
11835;SDS011;5977;51.972;7.640;2023-02-03T00:42:10;156.40;;;49.73;;
11835;SDS011;5977;51.972;7.640;2023-02-03T00:44:37;156.60;;;49.73;;
11835;SDS011;5977;51.972;7.640;2023-02-03T00:47:05;155.87;;;49.47;;
11835;SDS011;5977;51.972;7.640;2023-02-03T00:49:33;156.63;;;49.80;;
11835;SDS011;5977;51.972;7.640;2023-02-03T00:52:01;156.50;;;49.77;;
11835;SDS011;5977;51.972;7.640;2023-02-03T00:54:29;156.13;;;49.57;;
11835;SDS011;5977;51.972;7.640;2023-02-03T00:57:00;155.70;;;49.43;;
11835;SDS011;5977;51.972;7.640;2023-02-03T00:59:28;156.73;;;49.73;;
11835;SDS011;5977;51.972;7.640;2023-02-03T01:01:55;156.50;;;49.77;;
11835;SDS011;5977;51.972;7.640;2023-02-03T01:04:23;155.87;;;49.50;;
11835;SDS011;5977;51.972;7.640;2023-02-03T01:06:52;156.43;;;49.70;;
11835;SDS011;5977;51.972;7.640;2023-02-03T01:09:22;156.27;;;49.57;;
11835;SDS011;5977;51.972;7.640;2023-02-03T01:11:52;156.13;;;49.63;;
11835;SDS011;5977;51.972;7.640;2023-02-03T01:14:22;157.07;;;50.00;;
11835;SDS011;5977;51.972;7.640;2023-02-03T01:16:49;155.87;;;49.43;;
11835;SDS011;5977;51.972;7.640;2023-02-03T01:19:17;156.47;;;49.77;;
11835;SDS011;5977;51.972;7.640;2023-02-03T01:21:45;155.90;;;49.67;;
11835;SDS011;5977;51.972;7.640;2023-02-03T01:24:13;156.80;;;49.87;;
11835;SDS011;5977;51.972;7.640;2023-02-03T01:26:41;155.17;;;49.23;;
11835;SDS011;5977;51.972;7.640;2023-02-03T01:29:09;155.87;;;49.70;;
11835;SDS011;5977;51.972;7.640;2023-02-03T01:31:39;155.83;;;49.63;;
11835;SDS011;5977;51.972;7.640;2023-02-03T01:34:10;156.03;;;49.67;;
11835;SDS011;5977;51.972;7.640;2023-02-03T01:36:38;155.57;;;49.47;;
11835;SDS011;5977;51.972;7.640;2023-02-03T01:39:06;155.37;;;49.43;;
11835;SDS011;5977;51.972;7.640;2023-02-03T01:41:35;155.13;;;49.20;;
11835;SDS011;5977;51.972;7.640;2023-02-03T01:47:12;155.97;;;49.63;;
11835;SDS011;5977;51.972;7.640;2023-02-03T01:49:50;155.90;;;49.60;;
11835;SDS011;5977;51.972;7.640;2023-02-03T01:52:23;155.70;;;49.50;;
11835;SDS011;5977;51.972;7.640;2023-02-03T01:54:52;156.10;;;49.57;;
11835;SDS011;5977;51.972;7.640;2023-02-03T01:57:23;155.33;;;49.47;;
11835;SDS011;5977;51.972;7.640;2023-02-03T01:59:54;156.20;;;49.60;;
11835;SDS011;5977;51.972;7.640;2023-02-03T02:02:27;155.57;;;49.43;;
11835;SDS011;5977;51.972;7.640;2023-02-03T02:04:57;156.03;;;49.70;;
11835;SDS011;5977;51.972;7.640;2023-02-03T02:07:31;155.63;;;49.43;;
11835;SDS011;5977;51.972;7.640;2023-02-03T02:10:00;155.57;;;49.43;;
11835;SDS011;5977;51.972;7.640;2023-02-03T02:12:29;155.97;;;49.57;;
11835;SDS011;5977;51.972;7.640;2023-02-03T02:14:57;155.90;;;49.33;;
11835;SDS011;5977;51.972;7.640;2023-02-03T02:17:31;156.20;;;49.60;;
11835;SDS011;5977;51.972;7.640;2023-02-03T02:20:29;155.67;;;49.43;;
11835;SDS011;5977;51.972;7.640;2023-02-03T02:23:22;155.40;;;49.30;;
11835;SDS011;5977;51.972;7.640;2023-02-03T02:26:23;156.17;;;49.53;;
11835;SDS011;5977;51.972;7.640;2023-02-03T02:29:11;155.20;;;49.17;;
11835;SDS011;5977;51.972;7.640;2023-02-03T02:32:05;155.00;;;49.30;;
11835;SDS011;5977;51.972;7.640;2023-02-03T02:34:46;155.40;;;49.40;;
11835;SDS011;5977;51.972;7.640;2023-02-03T02:37:21;155.70;;;49.57;;
11835;SDS011;5977;51.972;7.640;2023-02-03T02:40:00;155.40;;;49.47;;
11835;SDS011;5977;51.972;7.640;2023-02-03T02:42:35;155.47;;;49.40;;
11835;SDS011;5977;51.972;7.640;2023-02-03T02:45:11;155.43;;;49.30;;
11835;SDS011;5977;51.972;7.640;2023-02-03T02:47:45;155.60;;;49.50;;
11835;SDS011;5977;51.972;7.640;2023-02-03T02:50:15;155.97;;;49.73;;
11835;SDS011;5977;51.972;7.640;2023-02-03T02:52:49;156.10;;;49.73;;
11835;SDS011;5977;51.972;7.640;2023-02-03T02:55:20;156.13;;;49.50;;
11835;SDS011;5977;51.972;7.640;2023-02-03T02:57:52;155.33;;;49.37;;
11835;SDS011;5977;51.972;7.640;2023-02-03T03:00:24;155.53;;;49.40;;
11835;SDS011;5977;51.972;7.640;2023-02-03T03:03:05;155.33;;;49.50;;
11835;SDS011;5977;51.972;7.640;2023-02-03T03:05:38;155.83;;;49.47;;
11835;SDS011;5977;51.972;7.640;2023-02-03T03:08:12;154.97;;;49.17;;
11835;SDS011;5977;51.972;7.640;2023-02-03T03:10:42;155.57;;;49.50;;
11835;SDS011;5977;51.972;7.640;2023-02-03T03:13:13;155.00;;;49.27;;
11835;SDS011;5977;51.972;7.640;2023-02-03T03:15:47;155.13;;;49.30;;
11835;SDS011;5977;51.972;7.640;2023-02-03T03:18:20;156.03;;;49.60;;
11835;SDS011;5977;51.972;7.640;2023-02-03T03:20:53;156.03;;;49.53;;
11835;SDS011;5977;51.972;7.640;2023-02-03T03:23:23;154.80;;;49.27;;
11835;SDS011;5977;51.972;7.640;2023-02-03T03:25:57;155.07;;;49.20;;
11835;SDS011;5977;51.972;7.640;2023-02-03T03:28:32;154.97;;;49.33;;
11835;SDS011;5977;51.972;7.640;2023-02-03T03:31:06;154.77;;;49.27;;
11835;SDS011;5977;51.972;7.640;2023-02-03T03:33:36;156.27;;;49.70;;
11835;SDS011;5977;51.972;7.640;2023-02-03T03:36:06;155.50;;;49.43;;
11835;SDS011;5977;51.972;7.640;2023-02-03T03:38:43;156.10;;;49.70;;
11835;SDS011;5977;51.972;7.640;2023-02-03T03:41:18;156.00;;;49.63;;
11835;SDS011;5977;51.972;7.640;2023-02-03T03:43:51;155.83;;;49.53;;
11835;SDS011;5977;51.972;7.640;2023-02-03T03:46:23;155.80;;;49.37;;
11835;SDS011;5977;51.972;7.640;2023-02-03T03:48:56;154.93;;;49.33;;
11835;SDS011;5977;51.972;7.640;2023-02-03T03:51:27;156.23;;;49.67;;
11835;SDS011;5977;51.972;7.640;2023-02-03T03:54:00;155.20;;;49.20;;
11835;SDS011;5977;51.972;7.640;2023-02-03T03:56:37;155.60;;;49.40;;
11835;SDS011;5977;51.972;7.640;2023-02-03T03:59:08;155.23;;;49.37;;
11835;SDS011;5977;51.972;7.640;2023-02-03T04:01:39;155.70;;;49.47;;
11835;SDS011;5977;51.972;7.640;2023-02-03T04:04:10;155.93;;;49.60;;
11835;SDS011;5977;51.972;7.640;2023-02-03T04:06:39;155.83;;;49.57;;
11835;SDS011;5977;51.972;7.640;2023-02-03T04:09:07;155.00;;;49.13;;
11835;SDS011;5977;51.972;7.640;2023-02-03T04:11:35;155.17;;;49.30;;
11835;SDS011;5977;51.972;7.640;2023-02-03T04:14:20;154.43;;;49.00;;
11835;SDS011;5977;51.972;7.640;2023-02-03T04:16:48;155.33;;;49.40;;
11835;SDS011;5977;51.972;7.640;2023-02-03T04:19:17;154.87;;;49.17;;
11835;SDS011;5977;51.972;7.640;2023-02-03T04:21:45;155.53;;;49.43;;
11835;SDS011;5977;51.972;7.640;2023-02-03T04:24:13;154.77;;;49.23;;
11835;SDS011;5977;51.972;7.640;2023-02-03T04:26:41;154.53;;;49.10;;
11835;SDS011;5977;51.972;7.640;2023-02-03T04:29:09;154.60;;;49.37;;
11835;SDS011;5977;51.972;7.640;2023-02-03T04:31:37;154.90;;;49.47;;
11835;SDS011;5977;51.972;7.640;2023-02-03T04:34:05;153.43;;;48.67;;
11835;SDS011;5977;51.972;7.640;2023-02-03T04:36:34;154.60;;;49.20;;
11835;SDS011;5977;51.972;7.640;2023-02-03T04:39:02;154.73;;;49.17;;
11835;SDS011;5977;51.972;7.640;2023-02-03T04:41:30;154.20;;;49.03;;
11835;SDS011;5977;51.972;7.640;2023-02-03T04:43:58;153.80;;;48.93;;
11835;SDS011;5977;51.972;7.640;2023-02-03T04:46:26;154.37;;;49.13;;
11835;SDS011;5977;51.972;7.640;2023-02-03T04:48:54;154.27;;;49.13;;
11835;SDS011;5977;51.972;7.640;2023-02-03T04:51:22;154.27;;;49.10;;
11835;SDS011;5977;51.972;7.640;2023-02-03T04:53:51;154.47;;;49.17;;
11835;SDS011;5977;51.972;7.640;2023-02-03T04:56:19;153.80;;;48.83;;
11835;SDS011;5977;51.972;7.640;2023-02-03T04:58:46;153.77;;;48.97;;
11835;SDS011;5977;51.972;7.640;2023-02-03T05:01:14;154.30;;;49.13;;
11835;SDS011;5977;51.972;7.640;2023-02-03T05:03:42;153.77;;;48.93;;
11835;SDS011;5977;51.972;7.640;2023-02-03T05:06:10;152.87;;;48.47;;
11835;SDS011;5977;51.972;7.640;2023-02-03T05:08:38;154.27;;;49.07;;
11835;SDS011;5977;51.972;7.640;2023-02-03T05:11:07;153.67;;;48.83;;
11835;SDS011;5977;51.972;7.640;2023-02-03T05:13:35;154.33;;;49.13;;
11835;SDS011;5977;51.972;7.640;2023-02-03T05:16:03;154.53;;;49.20;;
11835;SDS011;5977;51.972;7.640;2023-02-03T05:18:31;153.50;;;48.83;;
11835;SDS011;5977;51.972;7.640;2023-02-03T05:20:59;153.10;;;48.53;;
11835;SDS011;5977;51.972;7.640;2023-02-03T05:23:27;152.87;;;48.70;;
11835;SDS011;5977;51.972;7.640;2023-02-03T05:25:55;153.90;;;49.00;;
11835;SDS011;5977;51.972;7.640;2023-02-03T05:28:24;153.03;;;48.70;;
11835;SDS011;5977;51.972;7.640;2023-02-03T05:30:52;153.87;;;48.97;;
11835;SDS011;5977;51.972;7.640;2023-02-03T05:33:21;153.87;;;48.90;;
11835;SDS011;5977;51.972;7.640;2023-02-03T05:35:49;154.40;;;49.20;;
11835;SDS011;5977;51.972;7.640;2023-02-03T05:38:17;153.90;;;48.93;;
11835;SDS011;5977;51.972;7.640;2023-02-03T05:40:46;154.23;;;49.17;;
11835;SDS011;5977;51.972;7.640;2023-02-03T05:43:33;154.33;;;49.13;;
11835;SDS011;5977;51.972;7.640;2023-02-03T05:46:01;154.00;;;49.20;;
11835;SDS011;5977;51.972;7.640;2023-02-03T05:48:29;154.93;;;49.37;;
11835;SDS011;5977;51.972;7.640;2023-02-03T05:50:58;155.10;;;49.33;;
11835;SDS011;5977;51.972;7.640;2023-02-03T05:53:26;154.00;;;48.93;;
11835;SDS011;5977;51.972;7.640;2023-02-03T05:55:54;154.80;;;49.37;;
11835;SDS011;5977;51.972;7.640;2023-02-03T05:58:22;155.07;;;49.50;;
11835;SDS011;5977;51.972;7.640;2023-02-03T06:00:51;155.17;;;49.47;;
11835;SDS011;5977;51.972;7.640;2023-02-03T06:03:19;155.27;;;49.47;;
11835;SDS011;5977;51.972;7.640;2023-02-03T06:05:47;155.17;;;49.43;;
11835;SDS011;5977;51.972;7.640;2023-02-03T06:08:15;155.03;;;49.37;;
11835;SDS011;5977;51.972;7.640;2023-02-03T06:10:43;155.73;;;49.60;;
11835;SDS011;5977;51.972;7.640;2023-02-03T06:13:11;156.27;;;49.80;;
11835;SDS011;5977;51.972;7.640;2023-02-03T06:15:41;155.47;;;49.37;;
11835;SDS011;5977;51.972;7.640;2023-02-03T06:18:11;155.87;;;49.60;;
11835;SDS011;5977;51.972;7.640;2023-02-03T06:20:39;155.67;;;49.47;;
11835;SDS011;5977;51.972;7.640;2023-02-03T06:23:07;155.97;;;49.73;;
11835;SDS011;5977;51.972;7.640;2023-02-03T06:25:35;155.83;;;49.53;;
11835;SDS011;5977;51.972;7.640;2023-02-03T06:28:03;155.90;;;49.80;;
11835;SDS011;5977;51.972;7.640;2023-02-03T06:30:31;156.20;;;49.80;;
11835;SDS011;5977;51.972;7.640;2023-02-03T06:32:59;156.57;;;49.90;;
11835;SDS011;5977;51.972;7.640;2023-02-03T06:35:28;156.50;;;49.83;;
11835;SDS011;5977;51.972;7.640;2023-02-03T06:37:56;156.93;;;49.80;;
11835;SDS011;5977;51.972;7.640;2023-02-03T06:40:24;156.43;;;49.77;;
11835;SDS011;5977;51.972;7.640;2023-02-03T06:42:52;156.63;;;49.83;;
11835;SDS011;5977;51.972;7.640;2023-02-03T06:45:20;156.30;;;49.77;;
11835;SDS011;5977;51.972;7.640;2023-02-03T06:47:50;156.50;;;49.83;;
11835;SDS011;5977;51.972;7.640;2023-02-03T06:50:17;156.63;;;49.80;;
11835;SDS011;5977;51.972;7.640;2023-02-03T06:52:47;157.60;;;50.10;;
11835;SDS011;5977;51.972;7.640;2023-02-03T06:55:15;156.83;;;49.93;;
11835;SDS011;5977;51.972;7.640;2023-02-03T06:57:43;157.13;;;50.03;;
11835;SDS011;5977;51.972;7.640;2023-02-03T07:00:12;157.40;;;50.37;;
11835;SDS011;5977;51.972;7.640;2023-02-03T07:02:44;157.30;;;50.30;;
11835;SDS011;5977;51.972;7.640;2023-02-03T07:05:13;157.63;;;50.27;;
11835;SDS011;5977;51.972;7.640;2023-02-03T07:07:41;157.60;;;50.33;;
11835;SDS011;5977;51.972;7.640;2023-02-03T07:10:10;156.67;;;49.90;;
11835;SDS011;5977;51.972;7.640;2023-02-03T07:12:38;156.67;;;49.83;;
11835;SDS011;5977;51.972;7.640;2023-02-03T07:15:06;156.67;;;49.90;;
11835;SDS011;5977;51.972;7.640;2023-02-03T07:17:35;156.90;;;50.03;;
11835;SDS011;5977;51.972;7.640;2023-02-03T07:20:03;157.10;;;50.10;;
11835;SDS011;5977;51.972;7.640;2023-02-03T07:22:32;157.77;;;50.43;;
11835;SDS011;5977;51.972;7.640;2023-02-03T07:25:01;156.57;;;49.93;;
11835;SDS011;5977;51.972;7.640;2023-02-03T07:27:30;157.53;;;50.37;;
11835;SDS011;5977;51.972;7.640;2023-02-03T07:29:58;157.80;;;50.43;;
11835;SDS011;5977;51.972;7.640;2023-02-03T07:32:26;157.83;;;50.40;;
11835;SDS011;5977;51.972;7.640;2023-02-03T07:34:54;157.50;;;50.10;;
11835;SDS011;5977;51.972;7.640;2023-02-03T07:37:22;157.00;;;50.00;;
11835;SDS011;5977;51.972;7.640;2023-02-03T07:39:49;156.17;;;49.73;;
11835;SDS011;5977;51.972;7.640;2023-02-03T07:42:17;156.77;;;49.93;;
11835;SDS011;5977;51.972;7.640;2023-02-03T07:44:50;157.10;;;50.17;;
11835;SDS011;5977;51.972;7.640;2023-02-03T07:47:17;156.93;;;50.07;;
11835;SDS011;5977;51.972;7.640;2023-02-03T07:49:45;157.47;;;50.17;;
11835;SDS011;5977;51.972;7.640;2023-02-03T07:52:13;156.83;;;49.90;;
11835;SDS011;5977;51.972;7.640;2023-02-03T07:54:41;156.90;;;50.10;;
11835;SDS011;5977;51.972;7.640;2023-02-03T07:57:09;156.03;;;49.83;;
11835;SDS011;5977;51.972;7.640;2023-02-03T07:59:37;156.13;;;49.77;;
11835;SDS011;5977;51.972;7.640;2023-02-03T08:02:07;155.63;;;49.63;;
11835;SDS011;5977;51.972;7.640;2023-02-03T08:04:36;156.63;;;49.97;;
11835;SDS011;5977;51.972;7.640;2023-02-03T08:07:04;156.03;;;49.70;;
11835;SDS011;5977;51.972;7.640;2023-02-03T08:09:32;155.97;;;49.67;;
11835;SDS011;5977;51.972;7.640;2023-02-03T08:12:00;155.07;;;49.37;;
11835;SDS011;5977;51.972;7.640;2023-02-03T08:14:28;154.97;;;49.37;;
11835;SDS011;5977;51.972;7.640;2023-02-03T08:16:56;155.47;;;49.63;;
11835;SDS011;5977;51.972;7.640;2023-02-03T08:19:25;156.50;;;50.07;;
11835;SDS011;5977;51.972;7.640;2023-02-03T08:21:53;155.73;;;49.53;;
11835;SDS011;5977;51.972;7.640;2023-02-03T08:24:21;155.70;;;49.50;;
11835;SDS011;5977;51.972;7.640;2023-02-03T08:26:49;155.80;;;49.77;;
11835;SDS011;5977;51.972;7.640;2023-02-03T08:29:18;155.07;;;49.33;;
11835;SDS011;5977;51.972;7.640;2023-02-03T08:31:46;156.33;;;49.90;;
11835;SDS011;5977;51.972;7.640;2023-02-03T08:34:14;155.97;;;49.77;;
11835;SDS011;5977;51.972;7.640;2023-02-03T08:36:43;155.47;;;49.50;;
11835;SDS011;5977;51.972;7.640;2023-02-03T08:39:11;156.67;;;49.93;;
11835;SDS011;5977;51.972;7.640;2023-02-03T08:41:39;156.17;;;49.73;;
11835;SDS011;5977;51.972;7.640;2023-02-03T08:44:07;155.50;;;49.53;;
11835;SDS011;5977;51.972;7.640;2023-02-03T08:46:36;156.33;;;49.90;;
11835;SDS011;5977;51.972;7.640;2023-02-03T08:49:08;156.03;;;49.83;;
11835;SDS011;5977;51.972;7.640;2023-02-03T08:51:36;156.77;;;50.10;;
11835;SDS011;5977;51.972;7.640;2023-02-03T08:54:08;157.03;;;50.13;;
11835;SDS011;5977;51.972;7.640;2023-02-03T08:56:35;155.93;;;49.57;;
11835;SDS011;5977;51.972;7.640;2023-02-03T08:59:03;156.33;;;49.73;;
11835;SDS011;5977;51.972;7.640;2023-02-03T09:01:32;156.33;;;49.77;;
11835;SDS011;5977;51.972;7.640;2023-02-03T09:04:01;156.67;;;49.90;;
11835;SDS011;5977;51.972;7.640;2023-02-03T09:06:32;156.53;;;49.97;;
11835;SDS011;5977;51.972;7.640;2023-02-03T09:09:00;155.87;;;49.83;;
11835;SDS011;5977;51.972;7.640;2023-02-03T09:11:31;156.07;;;49.80;;
11835;SDS011;5977;51.972;7.640;2023-02-03T09:13:58;155.97;;;49.60;;
11835;SDS011;5977;51.972;7.640;2023-02-03T09:16:26;156.63;;;49.87;;
11835;SDS011;5977;51.972;7.640;2023-02-03T09:18:56;156.77;;;50.03;;
11835;SDS011;5977;51.972;7.640;2023-02-03T09:21:23;156.97;;;50.00;;
11835;SDS011;5977;51.972;7.640;2023-02-03T09:24:04;156.13;;;49.77;;
11835;SDS011;5977;51.972;7.640;2023-02-03T09:26:33;156.50;;;49.90;;
11835;SDS011;5977;51.972;7.640;2023-02-03T09:29:01;156.47;;;49.90;;
11835;SDS011;5977;51.972;7.640;2023-02-03T09:31:29;156.37;;;49.93;;
11835;SDS011;5977;51.972;7.640;2023-02-03T09:33:57;157.50;;;50.17;;
11835;SDS011;5977;51.972;7.640;2023-02-03T09:36:25;156.13;;;49.83;;
11835;SDS011;5977;51.972;7.640;2023-02-03T09:38:53;156.47;;;49.83;;
11835;SDS011;5977;51.972;7.640;2023-02-03T09:41:25;156.57;;;49.93;;
11835;SDS011;5977;51.972;7.640;2023-02-03T09:44:11;155.73;;;49.47;;
11835;SDS011;5977;51.972;7.640;2023-02-03T09:46:44;155.97;;;49.53;;
11835;SDS011;5977;51.972;7.640;2023-02-03T09:49:15;156.63;;;49.83;;
11835;SDS011;5977;51.972;7.640;2023-02-03T09:51:49;155.97;;;49.67;;
11835;SDS011;5977;51.972;7.640;2023-02-03T09:54:20;156.03;;;49.67;;
11835;SDS011;5977;51.972;7.640;2023-02-03T09:56:55;156.37;;;49.87;;
11835;SDS011;5977;51.972;7.640;2023-02-03T09:59:25;156.43;;;49.70;;
11835;SDS011;5977;51.972;7.640;2023-02-03T10:01:57;156.40;;;49.73;;
11835;SDS011;5977;51.972;7.640;2023-02-03T10:04:36;156.77;;;49.93;;
11835;SDS011;5977;51.972;7.640;2023-02-03T10:07:07;156.03;;;49.60;;
11835;SDS011;5977;51.972;7.640;2023-02-03T10:09:48;155.70;;;49.47;;
11835;SDS011;5977;51.972;7.640;2023-02-03T10:12:34;155.43;;;49.43;;
11835;SDS011;5977;51.972;7.640;2023-02-03T10:15:19;154.90;;;49.10;;
11835;SDS011;5977;51.972;7.640;2023-02-03T10:18:11;155.57;;;49.47;;
11835;SDS011;5977;51.972;7.640;2023-02-03T10:20:44;155.53;;;49.53;;
11835;SDS011;5977;51.972;7.640;2023-02-03T10:23:15;155.73;;;49.57;;
11835;SDS011;5977;51.972;7.640;2023-02-03T10:25:47;155.53;;;49.60;;
11835;SDS011;5977;51.972;7.640;2023-02-03T10:28:25;155.70;;;49.53;;
11835;SDS011;5977;51.972;7.640;2023-02-03T10:30:57;154.83;;;49.20;;
11835;SDS011;5977;51.972;7.640;2023-02-03T10:33:27;155.07;;;49.30;;
11835;SDS011;5977;51.972;7.640;2023-02-03T10:35:58;155.43;;;49.47;;
11835;SDS011;5977;51.972;7.640;2023-02-03T10:38:36;155.30;;;49.43;;
11835;SDS011;5977;51.972;7.640;2023-02-03T10:41:12;154.27;;;48.97;;
11835;SDS011;5977;51.972;7.640;2023-02-03T10:43:42;154.13;;;49.00;;
11835;SDS011;5977;51.972;7.640;2023-02-03T10:46:18;152.70;;;48.50;;
11835;SDS011;5977;51.972;7.640;2023-02-03T10:48:47;152.90;;;48.57;;
11835;SDS011;5977;51.972;7.640;2023-02-03T10:51:17;153.43;;;48.63;;
11835;SDS011;5977;51.972;7.640;2023-02-03T10:53:48;152.63;;;48.37;;
11835;SDS011;5977;51.972;7.640;2023-02-03T10:56:19;153.07;;;48.70;;
11835;SDS011;5977;51.972;7.640;2023-02-03T10:58:52;152.67;;;48.40;;
11835;SDS011;5977;51.972;7.640;2023-02-03T11:01:22;152.37;;;48.37;;
11835;SDS011;5977;51.972;7.640;2023-02-03T11:03:54;152.33;;;48.40;;
11835;SDS011;5977;51.972;7.640;2023-02-03T11:06:27;152.43;;;48.37;;
11835;SDS011;5977;51.972;7.640;2023-02-03T11:08:55;151.30;;;48.10;;
11835;SDS011;5977;51.972;7.640;2023-02-03T11:11:24;151.77;;;48.17;;
11835;SDS011;5977;51.972;7.640;2023-02-03T11:14:10;151.60;;;48.13;;
11835;SDS011;5977;51.972;7.640;2023-02-03T11:16:42;151.80;;;48.37;;
11835;SDS011;5977;51.972;7.640;2023-02-03T11:19:14;152.20;;;48.43;;
11835;SDS011;5977;51.972;7.640;2023-02-03T11:21:44;151.77;;;48.27;;
11835;SDS011;5977;51.972;7.640;2023-02-03T11:24:16;152.63;;;48.63;;
11835;SDS011;5977;51.972;7.640;2023-02-03T11:26:47;152.53;;;48.60;;
11835;SDS011;5977;51.972;7.640;2023-02-03T11:29:21;152.03;;;48.43;;
11835;SDS011;5977;51.972;7.640;2023-02-03T11:31:52;151.97;;;48.23;;
11835;SDS011;5977;51.972;7.640;2023-02-03T11:34:23;152.60;;;48.60;;
11835;SDS011;5977;51.972;7.640;2023-02-03T11:36:54;152.13;;;48.47;;
11835;SDS011;5977;51.972;7.640;2023-02-03T11:39:24;151.90;;;48.40;;
11835;SDS011;5977;51.972;7.640;2023-02-03T11:41:54;152.13;;;48.40;;
11835;SDS011;5977;51.972;7.640;2023-02-03T11:44:24;152.03;;;48.33;;
11835;SDS011;5977;51.972;7.640;2023-02-03T11:46:56;151.87;;;48.40;;
11835;SDS011;5977;51.972;7.640;2023-02-03T11:52:47;152.77;;;48.60;;
11835;SDS011;5977;51.972;7.640;2023-02-03T11:55:26;152.87;;;48.70;;
11835;SDS011;5977;51.972;7.640;2023-02-03T11:58:41;152.67;;;48.67;;
11835;SDS011;5977;51.972;7.640;2023-02-03T12:01:30;152.07;;;48.43;;
11835;SDS011;5977;51.972;7.640;2023-02-03T12:04:20;152.13;;;48.37;;
11835;SDS011;5977;51.972;7.640;2023-02-03T12:07:04;151.97;;;48.40;;
11835;SDS011;5977;51.972;7.640;2023-02-03T12:09:51;152.40;;;48.53;;
11835;SDS011;5977;51.972;7.640;2023-02-03T12:12:34;152.17;;;48.47;;
11835;SDS011;5977;51.972;7.640;2023-02-03T12:15:19;152.33;;;48.67;;
11835;SDS011;5977;51.972;7.640;2023-02-03T12:18:00;152.13;;;48.47;;
11835;SDS011;5977;51.972;7.640;2023-02-03T12:20:43;152.03;;;48.50;;
11835;SDS011;5977;51.972;7.640;2023-02-03T12:23:22;152.20;;;48.50;;
11835;SDS011;5977;51.972;7.640;2023-02-03T12:26:04;151.10;;;48.20;;
11835;SDS011;5977;51.972;7.640;2023-02-03T12:28:41;151.40;;;48.27;;
11835;SDS011;5977;51.972;7.640;2023-02-03T12:31:14;151.30;;;48.23;;
11835;SDS011;5977;51.972;7.640;2023-02-03T12:33:49;151.77;;;48.43;;
11835;SDS011;5977;51.972;7.640;2023-02-03T12:36:23;151.43;;;48.20;;
11835;SDS011;5977;51.972;7.640;2023-02-03T12:38:54;152.07;;;48.50;;
11835;SDS011;5977;51.972;7.640;2023-02-03T12:41:27;152.60;;;48.53;;
11835;SDS011;5977;51.972;7.640;2023-02-03T12:44:03;152.23;;;48.43;;
11835;SDS011;5977;51.972;7.640;2023-02-03T12:46:35;151.83;;;48.37;;
11835;SDS011;5977;51.972;7.640;2023-02-03T12:49:11;153.57;;;49.00;;
11835;SDS011;5977;51.972;7.640;2023-02-03T12:51:50;152.97;;;48.73;;
11835;SDS011;5977;51.972;7.640;2023-02-03T12:54:24;152.83;;;48.83;;
11835;SDS011;5977;51.972;7.640;2023-02-03T12:57:07;152.33;;;48.47;;
11835;SDS011;5977;51.972;7.640;2023-02-03T12:59:45;151.90;;;48.40;;
11835;SDS011;5977;51.972;7.640;2023-02-03T13:02:22;152.47;;;48.70;;
11835;SDS011;5977;51.972;7.640;2023-02-03T13:04:56;152.67;;;48.70;;
11835;SDS011;5977;51.972;7.640;2023-02-03T13:07:32;152.17;;;48.40;;
11835;SDS011;5977;51.972;7.640;2023-02-03T13:10:05;152.63;;;48.67;;
11835;SDS011;5977;51.972;7.640;2023-02-03T13:12:45;154.70;;;49.40;;
11835;SDS011;5977;51.972;7.640;2023-02-03T13:15:19;154.77;;;49.47;;
11835;SDS011;5977;51.972;7.640;2023-02-03T13:17:53;155.43;;;49.60;;
11835;SDS011;5977;51.972;7.640;2023-02-03T13:20:26;156.50;;;49.87;;
11835;SDS011;5977;51.972;7.640;2023-02-03T13:22:56;156.97;;;49.97;;
11835;SDS011;5977;51.972;7.640;2023-02-03T13:25:25;158.10;;;50.37;;
11835;SDS011;5977;51.972;7.640;2023-02-03T13:28:00;157.67;;;50.17;;
11835;SDS011;5977;51.972;7.640;2023-02-03T13:30:40;158.70;;;50.70;;
11835;SDS011;5977;51.972;7.640;2023-02-03T13:33:22;158.47;;;50.53;;
11835;SDS011;5977;51.972;7.640;2023-02-03T13:36:10;159.03;;;50.60;;
11835;SDS011;5977;51.972;7.640;2023-02-03T13:39:09;159.17;;;50.63;;
11835;SDS011;5977;51.972;7.640;2023-02-03T13:41:52;159.37;;;50.77;;
11835;SDS011;5977;51.972;7.640;2023-02-03T13:44:23;159.50;;;51.00;;
11835;SDS011;5977;51.972;7.640;2023-02-03T13:46:54;159.80;;;50.97;;
11835;SDS011;5977;51.972;7.640;2023-02-03T13:49:26;159.67;;;50.97;;
11835;SDS011;5977;51.972;7.640;2023-02-03T13:51:57;159.67;;;50.77;;
11835;SDS011;5977;51.972;7.640;2023-02-03T13:54:26;159.73;;;50.97;;
11835;SDS011;5977;51.972;7.640;2023-02-03T13:56:57;159.73;;;50.97;;
11835;SDS011;5977;51.972;7.640;2023-02-03T13:59:28;160.70;;;51.37;;
11835;SDS011;5977;51.972;7.640;2023-02-03T14:05:06;160.53;;;51.33;;
11835;SDS011;5977;51.972;7.640;2023-02-03T14:07:52;160.13;;;51.03;;
11835;SDS011;5977;51.972;7.640;2023-02-03T14:10:20;159.37;;;50.77;;
11835;SDS011;5977;51.972;7.640;2023-02-03T14:12:56;160.00;;;51.17;;
11835;SDS011;5977;51.972;7.640;2023-02-03T14:15:29;159.70;;;51.00;;
11835;SDS011;5977;51.972;7.640;2023-02-03T14:18:02;160.03;;;51.00;;
11835;SDS011;5977;51.972;7.640;2023-02-03T14:23:44;159.50;;;50.60;;
11835;SDS011;5977;51.972;7.640;2023-02-03T14:26:18;160.23;;;51.17;;
11835;SDS011;5977;51.972;7.640;2023-02-03T14:28:50;159.97;;;50.70;;
11835;SDS011;5977;51.972;7.640;2023-02-03T14:31:19;160.23;;;51.07;;
11835;SDS011;5977;51.972;7.640;2023-02-03T14:36:44;159.67;;;50.77;;
11835;SDS011;5977;51.972;7.640;2023-02-03T14:45:49;160.73;;;51.17;;
11835;SDS011;5977;51.972;7.640;2023-02-03T14:48:47;160.47;;;51.07;;
11835;SDS011;5977;51.972;7.640;2023-02-03T14:51:23;160.07;;;50.87;;
11835;SDS011;5977;51.972;7.640;2023-02-03T14:54:08;159.60;;;50.87;;
11835;SDS011;5977;51.972;7.640;2023-02-03T14:56:45;159.73;;;50.77;;
11835;SDS011;5977;51.972;7.640;2023-02-03T14:59:39;159.53;;;50.87;;
11835;SDS011;5977;51.972;7.640;2023-02-03T15:02:15;159.60;;;50.70;;
11835;SDS011;5977;51.972;7.640;2023-02-03T15:04:46;160.20;;;51.00;;
11835;SDS011;5977;51.972;7.640;2023-02-03T15:07:32;159.73;;;50.90;;
11835;SDS011;5977;51.972;7.640;2023-02-03T15:10:02;160.17;;;51.00;;